Time;durP1;ratioP1;P1;durP2;ratioP2;P2;SDS_P1;SDS_P2;PMS_P1;PMS_P2;Temp;Humidity;BMP_temperature;BMP_pressure;BME280_temperature;BME280_humidity;BME280_pressure;Samples;Min_cycle;Max_cycle;Signal;HPM_P1;HPM_P2
2023/12/03 00:02:08;;;;;;;33.60;16.27;;;;;;;-2.89;86.92;145560.97;4936755;28;20230;-56
2023/12/03 00:04:37;;;;;;;39.10;19.37;;;;;;;-2.89;87.57;145560.97;4941310;28;20229;-58
2023/12/03 00:07:04;;;;;;;36.07;17.90;;;;;;;-2.91;87.95;145556.03;4935828;28;20227;-56
2023/12/03 00:09:31;;;;;;;34.70;15.87;;;;;;;-2.98;87.02;145540.00;4939561;28;20236;-58
2023/12/03 00:11:57;;;;;;;30.60;16.60;;;;;;;-3.06;87.99;145519.03;4938680;29;20234;-57
2023/12/03 00:14:24;;;;;;;31.57;16.10;;;;;;;-3.05;89.55;145521.50;4939857;28;20240;-58
2023/12/03 00:16:51;;;;;;;32.53;15.97;;;;;;;-3.12;90.19;145505.47;4936572;29;20855;-58
2023/12/03 00:19:17;;;;;;;53.63;23.93;;;;;;;-3.18;90.30;145491.91;4934687;28;20757;-58
2023/12/03 00:21:45;;;;;;;36.37;17.30;;;;;;;-3.24;90.01;145477.16;4939268;28;20245;-56
2023/12/03 00:24:12;;;;;;;39.93;19.03;;;;;;;-3.20;91.57;145487.00;4937568;28;20241;-57
2023/12/03 00:26:38;;;;;;;35.70;17.40;;;;;;;-3.23;90.39;145479.59;4938779;29;20227;-55
2023/12/03 00:29:05;;;;;;;35.27;15.83;;;;;;;-3.32;91.68;145458.63;4941750;29;20909;-57
2023/12/03 00:31:33;;;;;;;36.23;16.00;;;;;;;-3.35;92.45;145450.03;4942129;28;20248;-55
2023/12/03 00:34:03;;;;;;;31.50;15.97;;;;;;;-3.45;92.72;145427.81;4938062;28;20259;-56
2023/12/03 00:36:29;;;;;;;29.03;15.00;;;;;;;-3.52;92.55;145409.31;4937948;28;20233;-56
2023/12/03 00:38:57;;;;;;;34.93;16.10;;;;;;;-3.68;93.88;145371.13;4941417;28;20241;-54
2023/12/03 00:41:24;;;;;;;31.43;15.80;;;;;;;-3.81;95.04;145340.31;4946554;28;20236;-58
2023/12/03 00:43:51;;;;;;;34.67;16.37;;;;;;;-3.89;95.25;145321.81;4941050;29;20218;-59
2023/12/03 00:46:19;;;;;;;28.07;14.37;;;;;;;-3.97;95.00;145303.34;4944190;28;20640;-58
2023/12/03 00:48:46;;;;;;;27.27;14.33;;;;;;;-4.05;95.34;145284.84;4946458;29;20228;-57
2023/12/03 00:51:12;;;;;;;33.30;15.97;;;;;;;-4.05;96.20;145284.84;4941554;28;20249;-57
2023/12/03 00:53:39;;;;;;;33.37;16.27;;;;;;;-4.09;96.92;145273.78;4942669;29;20217;-58
2023/12/03 00:56:08;;;;;;;43.77;19.97;;;;;;;-4.09;97.26;145274.97;4942864;28;20233;-58
2023/12/03 00:58:35;;;;;;;35.60;16.30;;;;;;;-4.10;97.04;145272.53;4944050;28;20230;-54
2023/12/03 01:01:02;;;;;;;27.00;13.80;;;;;;;-4.08;97.74;145276.25;4944129;28;20230;-56
2023/12/03 01:03:29;;;;;;;32.37;15.93;;;;;;;-4.10;97.98;145272.53;4947057;28;20249;-56
2023/12/03 01:05:55;;;;;;;29.90;15.63;;;;;;;-4.15;98.88;145260.19;4943452;28;20241;-55
2023/12/03 01:08:22;;;;;;;30.23;14.57;;;;;;;-4.17;98.17;145256.53;4939581;28;20231;-56
2023/12/03 01:10:49;;;;;;;29.50;13.30;;;;;;;-4.22;98.37;145244.19;4945933;28;20304;-54
2023/12/03 01:13:17;;;;;;;30.33;14.27;;;;;;;-4.24;98.62;145239.28;4943493;28;20250;-57
2023/12/03 01:15:44;;;;;;;30.70;14.73;;;;;;;-4.20;98.79;145247.88;4944147;28;20236;-57
2023/12/03 01:18:11;;;;;;;28.60;13.43;;;;;;;-4.21;98.70;145245.41;4943908;28;20243;-56
2023/12/03 01:20:38;;;;;;;26.37;13.17;;;;;;;-4.23;99.02;145240.50;4943734;28;20224;-57
2023/12/03 01:23:05;;;;;;;23.63;12.00;;;;;;;-4.27;98.39;145230.69;4941671;28;20227;-54
2023/12/03 01:25:32;;;;;;;27.63;13.53;;;;;;;-4.38;98.58;145204.78;4944660;28;20700;-57
2023/12/03 01:27:59;;;;;;;27.40;13.13;;;;;;;-4.45;99.53;145188.78;4942311;28;20233;-56
2023/12/03 01:30:27;;;;;;;24.97;13.00;;;;;;;-4.51;100.00;145174.00;4942131;28;20224;-57
2023/12/03 01:32:53;;;;;;;29.20;13.97;;;;;;;-4.45;100.00;145188.78;4941294;29;20238;-57
2023/12/03 01:35:20;;;;;;;30.33;14.10;;;;;;;-4.41;100.00;145197.38;4940320;28;20234;-56
2023/12/03 01:37:46;;;;;;;27.30;12.97;;;;;;;-4.37;100.00;145208.50;4946597;28;20237;-56
2023/12/03 01:40:13;;;;;;;25.57;12.97;;;;;;;-4.28;99.68;145228.22;4935264;28;20321;-57
2023/12/03 01:42:40;;;;;;;32.97;15.27;;;;;;;-4.22;100.00;145244.19;4943586;28;20867;-54
2023/12/03 01:45:33;;;;;;;35.80;15.47;;;;;;;-4.08;100.00;145277.44;4803271;29;20667;-57
2023/12/03 01:48:00;;;;;;;30.63;14.57;;;;;;;-4.00;100.00;145295.97;4942487;28;20228;-53
2023/12/03 01:50:28;;;;;;;32.50;16.33;;;;;;;-3.91;100.00;145316.88;4909886;28;20233;-55
2023/12/03 01:52:55;;;;;;;29.93;15.33;;;;;;;-3.80;100.00;145344.00;4874619;28;20253;-55
2023/12/03 01:55:22;;;;;;;26.50;14.90;;;;;;;-3.77;98.80;145350.19;4819338;28;20246;-57
2023/12/03 01:57:50;;;;;;;27.43;13.53;;;;;;;-3.77;98.61;145351.41;4895076;28;20429;-58
2023/12/03 02:00:17;;;;;;;29.53;15.67;;;;;;;-3.72;100.00;145362.50;4874876;28;20249;-57
2023/12/03 02:02:46;;;;;;;27.20;13.00;;;;;;;-3.73;99.79;145361.25;4917749;29;20239;-55
2023/12/03 02:05:13;;;;;;;30.50;13.37;;;;;;;-3.73;100.00;145361.25;4937014;28;20241;-54
2023/12/03 02:07:39;;;;;;;22.73;13.27;;;;;;;-3.73;99.67;145360.03;4942976;28;20284;-56
2023/12/03 02:10:08;;;;;;;28.73;12.63;;;;;;;-3.78;99.07;145347.72;4938381;28;20280;-56
2023/12/03 02:12:35;;;;;;;26.53;12.67;;;;;;;-3.74;100.00;145357.59;4944619;28;20245;-56
2023/12/03 02:15:00;;;;;;;25.17;12.10;;;;;;;-3.75;100.00;145356.31;4938681;28;20241;-57
2023/12/03 02:17:27;;;;;;;26.50;12.13;;;;;;;-3.73;100.00;145361.25;4934885;28;20241;-55
2023/12/03 02:19:55;;;;;;;23.43;12.53;;;;;;;-3.68;99.66;145371.13;4940356;28;20242;-57
2023/12/03 02:22:22;;;;;;;25.30;12.90;;;;;;;-3.79;98.86;145346.47;4939737;28;20327;-59
2023/12/03 02:24:50;;;;;;;24.40;12.77;;;;;;;-3.80;100.00;145344.00;4941197;28;20720;-57
2023/12/03 02:27:16;;;;;;;26.80;13.50;;;;;;;-3.81;100.00;145341.53;4938273;28;20221;-59
2023/12/03 02:29:47;;;;;;;28.40;13.00;;;;;;;-3.85;99.99;145331.66;4941043;28;20221;-59
2023/12/03 02:32:14;;;;;;;26.33;13.10;;;;;;;-3.79;100.00;145345.25;4938370;28;20234;-57
2023/12/03 02:34:41;;;;;;;26.40;12.63;;;;;;;-3.79;100.00;145345.25;4941698;28;20614;-56
2023/12/03 02:37:07;;;;;;;24.13;10.97;;;;;;;-3.80;99.95;145344.00;4937111;28;20230;-58
2023/12/03 02:39:34;;;;;;;20.43;10.93;;;;;;;-3.74;99.13;145357.59;4941272;28;20234;-59
2023/12/03 02:42:02;;;;;;;20.83;11.27;;;;;;;-3.71;93.00;145366.19;4939617;28;20228;-56
2023/12/03 02:44:28;;;;;;;24.83;11.07;;;;;;;-3.75;93.10;145356.31;4939646;28;20238;-59
2023/12/03 02:46:55;;;;;;;24.57;11.43;;;;;;;-3.78;90.36;145347.72;4939796;29;20232;-56
2023/12/03 02:49:21;;;;;;;22.50;11.33;;;;;;;-3.92;90.27;145315.69;4937761;28;20237;-55
2023/12/03 02:51:48;;;;;;;20.33;11.10;;;;;;;-3.97;90.61;145303.34;4933052;28;20293;-57
2023/12/03 02:54:15;;;;;;;22.23;10.97;;;;;;;-4.15;91.88;145261.47;4941466;28;20236;-56
2023/12/03 02:56:42;;;;;;;23.90;11.03;;;;;;;-4.24;92.91;145238.06;4940855;28;20241;-56
2023/12/03 02:59:10;;;;;;;22.37;11.23;;;;;;;-4.37;92.17;145208.50;4935644;28;20251;-55
2023/12/03 03:01:37;;;;;;;19.93;9.67;;;;;;;-4.40;93.92;145201.09;4943650;28;20230;-57
2023/12/03 03:04:04;;;;;;;18.57;9.93;;;;;;;-4.46;94.36;145186.31;4943367;28;20620;-58
2023/12/03 03:06:30;;;;;;;20.77;10.33;;;;;;;-4.50;95.03;145177.69;4941339;28;20438;-58
2023/12/03 03:08:57;;;;;;;20.93;10.30;;;;;;;-4.55;97.21;145164.16;4940068;28;20213;-55
2023/12/03 03:11:23;;;;;;;19.47;10.20;;;;;;;-4.65;96.51;145140.72;4939679;28;20256;-54
2023/12/03 03:13:50;;;;;;;21.77;10.83;;;;;;;-4.70;97.27;145128.41;4940074;29;20597;-57
2023/12/03 03:16:18;;;;;;;22.77;10.70;;;;;;;-4.68;97.23;145133.34;4937581;28;20236;-57
2023/12/03 03:18:44;;;;;;;20.13;10.07;;;;;;;-4.79;98.22;145107.50;4942118;28;20237;-55
2023/12/03 03:21:11;;;;;;;22.00;10.60;;;;;;;-4.91;98.90;145080.41;4935422;28;20240;-57
2023/12/03 03:23:38;;;;;;;20.67;10.67;;;;;;;-5.03;99.33;145050.84;4944888;29;20261;-57
2023/12/03 03:26:05;;;;;;;20.70;10.27;;;;;;;-5.10;100.00;145033.63;4938734;28;20234;-56
2023/12/03 03:28:31;;;;;;;21.30;10.27;;;;;;;-5.12;100.00;145029.94;4936153;29;20555;-57
2023/12/03 03:30:58;;;;;;;18.40;10.17;;;;;;;-5.06;100.00;145044.72;4940122;28;20225;-56
2023/12/03 03:33:26;;;;;;;22.57;10.87;;;;;;;-5.15;100.00;145022.56;4938346;28;20239;-57
2023/12/03 03:35:53;;;;;;;21.83;10.70;;;;;;;-5.18;100.00;145015.16;4939845;28;20231;-57
2023/12/03 03:38:20;;;;;;;24.77;11.53;;;;;;;-5.17;100.00;145017.63;4938498;29;20233;-53
2023/12/03 03:40:46;;;;;;;21.60;10.47;;;;;;;-5.16;100.00;145020.09;4938848;28;20292;-54
2023/12/03 03:43:13;;;;;;;22.37;9.57;;;;;;;-5.19;100.00;145012.69;4935374;28;20220;-55
2023/12/03 03:45:40;;;;;;;19.83;9.33;;;;;;;-5.30;100.00;144986.88;4936534;28;20235;-57
2023/12/03 03:48:06;;;;;;;21.60;10.20;;;;;;;-5.35;100.00;144974.56;4939304;28;20232;-54
2023/12/03 03:50:34;;;;;;;20.03;9.93;;;;;;;-5.38;100.00;144967.19;4941723;28;20235;-56
2023/12/03 03:53:01;;;;;;;20.10;9.27;;;;;;;-5.43;100.00;144954.88;4939482;28;20231;-62
2023/12/03 03:55:27;;;;;;;22.07;10.23;;;;;;;-5.38;100.00;144967.19;4938750;29;20237;-56
2023/12/03 03:57:54;;;;;;;23.50;10.83;;;;;;;-5.32;100.00;144980.69;4940087;29;20232;-56
2023/12/03 04:00:21;;;;;;;22.93;10.83;;;;;;;-5.40;100.00;144962.25;4942013;28;20239;-55
2023/12/03 04:02:48;;;;;;;21.43;9.57;;;;;;;-5.45;100.00;144949.94;4941280;28;20318;-54
2023/12/03 04:05:15;;;;;;;19.17;9.83;;;;;;;-5.47;100.00;144945.03;4939578;28;20229;-57
2023/12/03 04:07:43;;;;;;;20.17;9.73;;;;;;;-5.51;100.00;144936.38;4937865;29;20231;-55
2023/12/03 04:10:11;;;;;;;20.00;9.27;;;;;;;-5.60;100.00;144915.47;4937413;28;20228;-56
2023/12/03 04:12:37;;;;;;;18.90;9.40;;;;;;;-5.60;100.00;144915.47;4939273;29;20261;-56
2023/12/03 04:15:05;;;;;;;18.67;9.27;;;;;;;-5.58;100.00;144919.16;4936108;28;20584;-57
2023/12/03 04:17:32;;;;;;;24.88;12.93;;;;;;;-5.52;100.00;144933.91;4938022;28;20559;-57
2023/12/03 04:19:59;;;;;;;19.30;9.70;;;;;;;-5.42;100.00;144958.53;4939890;28;20550;-58
2023/12/03 04:22:25;;;;;;;21.03;10.43;;;;;;;-5.20;100.00;145011.44;4937776;28;20274;-57
2023/12/03 04:24:53;;;;;;;24.07;11.10;;;;;;;-5.11;100.00;145031.16;4938166;28;20244;-58
2023/12/03 04:27:20;;;;;;;23.60;11.40;;;;;;;-4.88;100.00;145086.59;4938580;28;20237;-54
2023/12/03 04:29:46;;;;;;;21.60;10.10;;;;;;;-4.78;100.00;145109.97;4941460;28;20230;-56
2023/12/03 04:32:13;;;;;;;22.13;10.93;;;;;;;-4.58;100.00;145156.75;5216993;22;20539;-56
2023/12/03 04:34:40;;;;;;;21.93;10.10;;;;;;;-4.49;100.00;145180.13;4983915;28;20233;-58
2023/12/03 04:37:06;;;;;;;23.40;10.27;;;;;;;-4.41;100.00;145198.66;4982402;28;20224;-57
2023/12/03 04:39:34;;;;;;;22.57;11.63;;;;;;;-4.37;99.32;145208.50;4985019;28;20246;-58
2023/12/03 04:42:02;;;;;;;20.57;10.80;;;;;;;-4.30;100.00;145225.75;4984967;28;20315;-56
2023/12/03 04:44:32;;;;;;;22.40;10.17;;;;;;;-4.28;100.00;145229.41;4983011;28;20244;-56
2023/12/03 04:46:58;;;;;;;22.77;11.40;;;;;;;-4.31;100.00;145223.28;4985618;28;20527;-57
2023/12/03 04:49:25;;;;;;;19.30;9.60;;;;;;;-4.30;100.00;145225.75;4981668;28;20235;-58
2023/12/03 04:51:52;;;;;;;21.93;9.80;;;;;;;-4.23;100.00;145240.50;4985465;28;20246;-57
2023/12/03 04:54:18;;;;;;;20.57;9.97;;;;;;;-4.19;100.00;145250.34;4982500;28;20232;-57
2023/12/03 04:56:45;;;;;;;22.67;11.03;;;;;;;-4.19;100.00;145251.59;4984819;28;20223;-58
2023/12/03 04:59:13;;;;;;;20.83;10.50;;;;;;;-4.13;100.00;145263.91;4982377;28;20223;-55
2023/12/03 05:01:39;;;;;;;23.87;11.07;;;;;;;-4.11;100.00;145270.06;4985488;28;20691;-58
2023/12/03 05:04:06;;;;;;;22.57;11.33;;;;;;;-4.07;100.00;145279.91;4982488;28;20220;-57
2023/12/03 05:06:33;;;;;;;21.73;10.50;;;;;;;-4.10;100.00;145272.53;4985052;28;20242;-58
2023/12/03 05:09:01;;;;;;;21.87;10.50;;;;;;;-4.07;100.00;145279.91;4985342;28;20296;-57
2023/12/03 05:11:27;;;;;;;21.70;10.90;;;;;;;-4.04;100.00;145287.31;4982497;28;20303;-55
2023/12/03 05:13:54;;;;;;;24.77;9.37;;;;;;;-4.15;100.00;145261.47;4985271;28;20218;-55
2023/12/03 05:16:22;;;;;;;20.00;10.17;;;;;;;-4.19;100.00;145250.34;4982012;28;20243;-54
2023/12/03 05:18:48;;;;;;;21.50;10.00;;;;;;;-4.27;100.00;145230.69;4983889;28;20726;-57
2023/12/03 05:21:15;;;;;;;20.70;10.37;;;;;;;-4.26;100.00;145234.34;4982107;28;20238;-54
2023/12/03 05:23:42;;;;;;;23.37;11.53;;;;;;;-4.25;100.00;145235.59;4984450;28;20241;-57
2023/12/03 05:26:08;;;;;;;22.53;10.57;;;;;;;-4.20;100.00;145249.13;4983211;28;20255;-57
2023/12/03 05:28:35;;;;;;;19.97;10.37;;;;;;;-4.16;100.00;145259.00;4988248;28;20224;-57
2023/12/03 05:31:02;;;;;;;19.97;10.17;;;;;;;-4.15;100.00;145260.19;4988194;28;20223;-56
2023/12/03 05:33:30;;;;;;;19.87;9.50;;;;;;;-4.07;100.00;145278.72;4985702;28;20278;-57
2023/12/03 05:35:57;;;;;;;20.10;9.93;;;;;;;-4.08;100.00;145277.44;4988486;28;20219;-57
2023/12/03 05:38:23;;;;;;;19.07;9.73;;;;;;;-4.02;100.00;145292.25;4985765;28;20321;-57
2023/12/03 05:40:50;;;;;;;21.20;9.80;;;;;;;-4.06;100.00;145281.16;4987983;28;20230;-55
2023/12/03 05:43:16;;;;;;;18.73;9.47;;;;;;;-4.03;100.00;145289.78;4985283;28;20229;-55
2023/12/03 05:45:43;;;;;;;18.93;10.20;;;;;;;-4.00;100.00;145295.97;4988231;28;20230;-57
2023/12/03 05:48:10;;;;;;;19.63;9.97;;;;;;;-3.96;100.00;145304.56;4971921;28;20275;-56
2023/12/03 05:50:38;;;;;;;18.47;10.00;;;;;;;-3.95;100.00;145307.03;4988447;28;20703;-56
2023/12/03 05:53:04;;;;;;;21.40;10.20;;;;;;;-3.93;100.00;145313.22;4985552;28;20699;-56
2023/12/03 05:55:31;;;;;;;19.70;10.33;;;;;;;-3.91;100.00;145318.13;4988171;28;20248;-56
2023/12/03 05:57:57;;;;;;;21.17;11.33;;;;;;;-3.88;100.00;145324.28;4987803;28;20233;-58
2023/12/03 06:00:24;;;;;;;19.60;10.17;;;;;;;-3.90;100.00;145320.59;4984419;28;20251;-58
2023/12/03 06:02:50;;;;;;;19.37;10.20;;;;;;;-3.92;100.00;145314.41;4988019;28;20588;-58
2023/12/03 06:05:17;;;;;;;18.47;9.60;;;;;;;-4.02;100.00;145291.03;4984911;28;20226;-58
2023/12/03 06:07:45;;;;;;;21.33;9.67;;;;;;;-4.12;100.00;145267.59;4986927;28;20223;-58
2023/12/03 06:10:12;;;;;;;23.20;10.20;;;;;;;-4.26;100.00;145233.13;4976919;28;20245;-58
2023/12/03 06:12:38;;;;;;;18.50;9.57;;;;;;;-4.47;100.00;145183.84;4988098;28;20219;-58
2023/12/03 06:15:07;;;;;;;17.70;9.17;;;;;;;-4.65;100.00;145140.72;4984465;28;20220;-57
2023/12/03 06:17:33;;;;;;;18.93;9.93;;;;;;;-4.81;100.00;145103.81;4987519;28;20722;-58
2023/12/03 06:20:01;;;;;;;19.43;9.53;;;;;;;-4.95;100.00;145070.56;4978918;28;20230;-58
2023/12/03 06:22:28;;;;;;;19.27;10.13;;;;;;;-5.08;100.00;145038.53;4984253;28;20595;-58
2023/12/03 06:24:56;;;;;;;21.47;10.67;;;;;;;-5.20;100.00;145010.25;4986375;28;20219;-58
2023/12/03 06:27:22;;;;;;;21.20;10.10;;;;;;;-5.31;100.00;144984.41;4984754;28;20701;-57
2023/12/03 06:29:49;;;;;;;18.67;9.43;;;;;;;-5.32;100.00;144981.94;4987515;28;20233;-57
2023/12/03 06:32:15;;;;;;;18.47;9.70;;;;;;;-5.44;100.00;144952.41;4984773;28;20246;-56
2023/12/03 06:34:42;;;;;;;21.30;9.63;;;;;;;-5.52;100.00;144935.19;4987261;28;20601;-56
2023/12/03 06:37:09;;;;;;;19.40;9.40;;;;;;;-5.58;100.00;144919.16;4984218;28;20743;-57
2023/12/03 06:39:35;;;;;;;23.20;10.90;;;;;;;-5.63;100.00;144908.09;4987420;28;20545;-56
2023/12/03 06:42:04;;;;;;;20.90;9.23;;;;;;;-5.72;100.00;144885.94;4987381;28;20231;-57
2023/12/03 06:44:30;;;;;;;24.60;11.33;;;;;;;-5.74;100.00;144882.22;4979572;28;20229;-57
2023/12/03 06:46:57;;;;;;;21.30;10.50;;;;;;;-5.74;100.00;144882.22;4986831;28;20218;-57
2023/12/03 06:49:24;;;;;;;22.53;10.30;;;;;;;-5.80;100.00;144867.47;4984008;28;20753;-56
2023/12/03 06:51:51;;;;;;;22.67;11.03;;;;;;;-5.81;100.00;144865.00;4987300;28;20772;-57
2023/12/03 06:54:17;;;;;;;25.17;11.40;;;;;;;-5.82;100.00;144862.53;4984268;28;20232;-57
2023/12/03 06:56:44;;;;;;;25.07;12.00;;;;;;;-5.80;100.00;144867.47;4986864;28;20233;-57
2023/12/03 06:59:12;;;;;;;23.37;10.47;;;;;;;-5.87;100.00;144851.50;4984189;28;20277;-56
2023/12/03 07:01:38;;;;;;;22.30;10.40;;;;;;;-5.90;100.00;144844.09;4987158;28;20322;-57
2023/12/03 07:04:05;;;;;;;21.67;10.63;;;;;;;-5.95;100.00;144831.81;4984535;28;20637;-56
2023/12/03 07:06:32;;;;;;;66.00;31.73;;;;;;;-5.89;100.00;144846.56;4987273;28;20223;-57
2023/12/03 07:09:01;;;;;;;26.50;12.47;;;;;;;-5.90;100.00;144844.09;4969371;28;20226;-56
2023/12/03 07:11:29;;;;;;;27.40;13.57;;;;;;;-5.90;100.00;144844.09;4983872;28;20245;-56
2023/12/03 07:13:56;;;;;;;53.17;22.53;;;;;;;-5.83;100.00;144860.13;4986897;28;20215;-57
2023/12/03 07:16:24;;;;;;;72.27;31.50;;;;;;;-5.88;100.00;144847.81;4983841;28;20227;-58
2023/12/03 07:18:50;;;;;;;60.87;30.13;;;;;;;-5.87;100.00;144851.50;4986419;28;20226;-57
2023/12/03 07:21:17;;;;;;;60.60;28.87;;;;;;;-5.86;100.00;144853.94;4983951;28;20582;-57
2023/12/03 07:23:43;;;;;;;52.73;23.73;;;;;;;-5.89;100.00;144845.38;4986291;28;20215;-58
2023/12/03 07:26:11;;;;;;;39.60;18.90;;;;;;;-5.84;100.00;144858.88;4984440;28;20842;-57
2023/12/03 07:28:37;;;;;;;44.90;23.23;;;;;;;-5.82;100.00;144862.53;4987175;28;20236;-56
2023/12/03 07:31:04;;;;;;;46.70;25.63;;;;;;;-5.79;100.00;144869.94;4987004;28;20254;-56
2023/12/03 07:33:33;;;;;;;38.67;19.47;;;;;;;-5.77;100.00;144874.84;4984052;28;20260;-56
2023/12/03 07:35:59;;;;;;;40.27;18.70;;;;;;;-5.76;100.00;144876.09;4986361;28;20563;-56
2023/12/03 07:38:26;;;;;;;35.90;17.30;;;;;;;-5.83;100.00;144860.13;4983540;28;20247;-57
2023/12/03 07:40:52;;;;;;;46.33;20.33;;;;;;;-5.80;100.00;144867.47;4985877;28;20231;-57
2023/12/03 07:43:19;;;;;;;50.47;22.93;;;;;;;-5.76;100.00;144876.09;4982772;28;20233;-54
2023/12/03 07:45:46;;;;;;;50.93;24.60;;;;;;;-5.74;100.00;144881.03;4985016;28;20214;-57
2023/12/03 07:48:12;;;;;;;47.57;24.20;;;;;;;-5.73;100.00;144884.69;4983399;28;20245;-56
2023/12/03 07:50:40;;;;;;;45.83;22.27;;;;;;;-5.74;100.00;144881.03;4985695;28;20229;-56
2023/12/03 07:53:07;;;;;;;58.40;26.20;;;;;;;-5.74;100.00;144882.22;4983111;28;20218;-57
2023/12/03 07:55:34;;;;;;;41.00;19.60;;;;;;;-5.78;100.00;144873.63;4986000;28;20233;-56
2023/12/03 07:58:00;;;;;;;38.60;18.60;;;;;;;-5.77;100.00;144874.84;4986290;28;20241;-55
2023/12/03 08:00:27;;;;;;;41.07;19.73;;;;;;;-5.73;100.00;144883.47;4984050;28;20245;-57
2023/12/03 08:02:53;;;;;;;48.40;28.90;;;;;;;-5.69;100.00;144894.53;4984664;28;20528;-56
2023/12/03 08:05:20;;;;;;;36.33;18.93;;;;;;;-5.62;100.00;144910.56;4983033;28;20600;-54
2023/12/03 08:07:48;;;;;;;36.70;18.63;;;;;;;-5.63;100.00;144908.09;4976941;28;20277;-55
2023/12/03 08:10:15;;;;;;;28.07;14.13;;;;;;;-5.57;100.00;144922.88;4983075;28;20239;-56
2023/12/03 08:12:41;;;;;;;29.90;14.50;;;;;;;-5.52;100.00;144935.19;4985482;28;20590;-54
2023/12/03 08:15:08;;;;;;;31.50;14.63;;;;;;;-5.48;100.00;144943.78;4982919;28;20230;-54
2023/12/03 08:17:35;;;;;;;29.17;14.10;;;;;;;-5.47;100.00;144945.03;4985605;28;20252;-57
2023/12/03 08:20:02;;;;;;;31.10;14.37;;;;;;;-5.45;100.00;144951.16;4975254;28;20229;-54
2023/12/03 08:22:28;;;;;;;31.93;13.80;;;;;;;-5.40;100.00;144962.25;4982547;28;20761;-54
2023/12/03 08:24:56;;;;;;;22.10;11.63;;;;;;;-5.37;100.00;144969.63;4984556;28;20301;-56
2023/12/03 08:27:23;;;;;;;25.00;11.50;;;;;;;-5.35;100.00;144974.56;4982605;28;20265;-56
2023/12/03 08:29:50;;;;;;;23.87;11.57;;;;;;;-5.26;100.00;144995.47;4985836;28;20226;-55
2023/12/03 08:32:18;;;;;;;24.77;10.40;;;;;;;-5.18;100.00;145016.38;4982501;28;20734;-54
2023/12/03 08:34:45;;;;;;;21.80;9.90;;;;;;;-5.10;100.00;145034.88;4985263;28;20627;-56
2023/12/03 08:37:11;;;;;;;22.87;10.23;;;;;;;-5.05;100.00;145047.19;4981690;28;20704;-56
2023/12/03 08:39:38;;;;;;;18.57;9.53;;;;;;;-4.99;100.00;145059.50;4985286;28;20599;-56
2023/12/03 08:42:07;;;;;;;25.03;10.93;;;;;;;-4.89;100.00;145084.13;4985583;28;20655;-56
2023/12/03 08:44:33;;;;;;;22.40;11.30;;;;;;;-4.84;100.00;145095.19;4982819;28;20237;-57
2023/12/03 08:47:00;;;;;;;20.27;9.43;;;;;;;-4.78;100.00;145109.97;4984420;28;20334;-55
2023/12/03 08:49:27;;;;;;;19.63;8.90;;;;;;;-4.63;100.00;145145.66;4982678;28;20250;-56
2023/12/03 08:51:54;;;;;;;21.30;10.13;;;;;;;-4.60;100.00;145154.31;4985274;28;20219;-56
2023/12/03 08:54:20;;;;;;;16.70;8.60;;;;;;;-4.56;100.00;145162.91;4983086;28;20230;-54
2023/12/03 08:56:47;;;;;;;15.90;8.43;;;;;;;-4.51;100.00;145174.00;4985497;28;20311;-56
2023/12/03 08:59:15;;;;;;;17.80;9.60;;;;;;;-4.43;100.00;145192.47;4982831;28;20234;-56
2023/12/03 09:01:41;;;;;;;16.43;8.10;;;;;;;-4.40;100.00;145201.09;4988235;28;20241;-57
2023/12/03 09:04:09;;;;;;;17.43;7.90;;;;;;;-4.36;100.00;145210.97;4986103;28;20223;-56
2023/12/03 09:06:35;;;;;;;19.80;9.13;;;;;;;-4.33;100.00;145217.09;4989271;28;20236;-56
2023/12/03 09:09:02;;;;;;;22.50;9.50;;;;;;;-4.23;100.00;145240.50;4989091;28;20230;-56
2023/12/03 09:11:28;;;;;;;18.73;9.40;;;;;;;-4.19;100.00;145251.59;4975916;28;20330;-54
2023/12/03 09:13:55;;;;;;;16.43;8.27;;;;;;;-4.19;100.00;145250.34;4988178;28;20237;-54
2023/12/03 09:16:23;;;;;;;18.13;8.50;;;;;;;-4.07;100.00;145279.91;4986154;28;20238;-54
2023/12/03 09:18:49;;;;;;;16.37;8.80;;;;;;;-4.03;100.00;145289.78;4988023;28;20227;-56
2023/12/03 09:21:16;;;;;;;20.33;9.37;;;;;;;-3.89;100.00;145323.06;4985486;28;20228;-53
2023/12/03 09:23:44;;;;;;;19.30;9.57;;;;;;;-3.77;100.00;145351.41;4988822;28;20219;-56
2023/12/03 09:26:10;;;;;;;18.80;8.97;;;;;;;-3.67;100.00;145373.59;4985567;28;20250;-56
2023/12/03 09:28:37;;;;;;;17.20;8.50;;;;;;;-3.58;100.00;145395.78;4988575;28;20230;-54
2023/12/03 09:31:04;;;;;;;18.87;8.13;;;;;;;-3.47;100.00;145422.88;4988539;28;20237;-55
2023/12/03 09:33:32;;;;;;;17.20;9.30;;;;;;;-3.42;98.72;145433.97;4985201;28;20240;-56
2023/12/03 09:35:58;;;;;;;21.27;10.33;;;;;;;-3.35;98.35;145451.22;4988716;28;20227;-53
2023/12/03 09:38:25;;;;;;;17.03;9.63;;;;;;;-3.29;97.22;145464.81;4985547;28;20246;-55
2023/12/03 09:40:56;;;;;;;23.17;11.53;;;;;;;-3.23;96.47;145479.59;4979610;28;20223;-55
2023/12/03 09:43:27;;;;;;;24.17;11.50;;;;;;;-3.11;95.74;145509.16;4985386;28;20235;-56
2023/12/03 09:45:57;;;;;;;23.27;12.03;;;;;;;-3.09;95.80;145512.88;4986950;28;20242;-57
2023/12/03 09:48:25;;;;;;;22.37;10.90;;;;;;;-2.97;95.35;145542.47;4985383;28;20227;-53
2023/12/03 09:50:55;;;;;;;19.30;10.23;;;;;;;-2.95;95.31;145544.94;4988445;28;20235;-56
2023/12/03 09:53:24;;;;;;;22.30;10.83;;;;;;;-2.89;96.03;145559.75;4985324;28;20219;-53
2023/12/03 09:55:53;;;;;;;23.20;9.77;;;;;;;-2.94;97.79;145547.41;4987991;28;20268;-56
2023/12/03 09:58:20;;;;;;;24.43;11.80;;;;;;;-2.81;96.85;145579.47;4985247;28;20707;-55
2023/12/03 10:00:48;;;;;;;26.03;12.13;;;;;;;-2.88;97.24;145563.44;4988672;28;20404;-56
2023/12/03 10:03:15;;;;;;;25.27;12.20;;;;;;;-2.76;96.96;145590.56;4985370;28;20227;-54
2023/12/03 10:05:41;;;;;;;25.93;12.30;;;;;;;-2.68;96.94;145611.56;4988313;28;20299;-56
2023/12/03 10:08:10;;;;;;;25.80;14.37;;;;;;;-2.55;96.96;145642.38;4985223;28;20242;-54
2023/12/03 10:10:41;;;;;;;27.93;15.03;;;;;;;-2.41;96.35;145674.47;4987772;28;20632;-56
2023/12/03 10:13:09;;;;;;;34.03;16.97;;;;;;;-2.28;94.25;145705.28;4983759;28;20769;-53
2023/12/03 10:15:35;;;;;;;30.33;15.57;;;;;;;-2.13;92.25;145742.31;4987419;28;20708;-56
2023/12/03 10:18:03;;;;;;;29.17;15.53;;;;;;;-2.13;91.20;145742.31;4988173;28;20221;-56
2023/12/03 10:20:30;;;;;;;29.90;15.53;;;;;;;-2.09;92.39;145752.19;4985152;28;20244;-57
2023/12/03 10:22:58;;;;;;;30.77;15.07;;;;;;;-2.03;91.08;145765.72;4987490;28;20235;-56
2023/12/03 10:25:34;;;;;;;32.33;15.90;;;;;;;-2.05;90.84;145759.59;4984811;28;20308;-56
2023/12/03 10:28:02;;;;;;;32.00;16.13;;;;;;;-1.97;90.23;145780.53;4987775;28;20227;-55
2023/12/03 10:30:29;;;;;;;34.67;16.43;;;;;;;-1.90;90.29;145795.34;4984871;28;20257;-56
2023/12/03 10:32:56;;;;;;;28.90;15.83;;;;;;;-1.85;90.26;145807.69;4986603;28;20240;-55
2023/12/03 10:35:23;;;;;;;30.80;16.57;;;;;;;-1.77;89.73;145826.25;4984814;28;20266;-54
2023/12/03 10:37:50;;;;;;;33.23;15.47;;;;;;;-1.69;89.23;145846.00;4987636;28;20565;-54
2023/12/03 10:40:18;;;;;;;33.03;16.33;;;;;;;-1.69;87.90;145846.00;4984684;28;20224;-53
2023/12/03 10:42:46;;;;;;;35.00;15.23;;;;;;;-1.70;88.32;145843.53;4987019;28;20253;-55
2023/12/03 10:45:14;;;;;;;33.27;15.23;;;;;;;-1.67;90.19;145852.16;4975989;28;20226;-56
2023/12/03 10:47:42;;;;;;;27.80;13.47;;;;;;;-1.65;90.04;145857.09;4986808;28;20221;-56
2023/12/03 10:50:10;;;;;;;24.90;13.87;;;;;;;-1.62;90.37;145863.28;4984388;28;20854;-53
2023/12/03 10:52:38;;;;;;;27.90;13.83;;;;;;;-1.64;90.47;145859.56;4987124;28;20232;-56
2023/12/03 10:55:06;;;;;;;26.50;13.10;;;;;;;-1.54;88.25;145882.97;4985473;28;20220;-53
2023/12/03 10:57:35;;;;;;;27.83;13.50;;;;;;;-1.51;86.83;145890.41;4984625;28;20287;-55
2023/12/03 11:00:09;;;;;;;23.13;12.17;;;;;;;-1.48;86.76;145896.59;4986798;28;20213;-53
2023/12/03 11:02:40;;;;;;;24.03;12.50;;;;;;;-1.40;87.69;145916.34;4984739;28;20561;-53
2023/12/03 11:05:11;;;;;;;24.10;12.23;;;;;;;-1.33;87.56;145932.38;4974466;28;20288;-56
2023/12/03 11:07:38;;;;;;;26.57;12.03;;;;;;;-1.24;86.80;145954.59;4983453;28;20271;-55